Whitingham, VT (05361)

10:19 AM EDT on March 30, 2015 (GMT -0400)
South of the Village | | Change Station
CLOSE
Current Station
Personal Weather Station
Location: Jacksonville, VT
Elevation: 1545 ft
Nearby Weather Stations

Elev 1545 ft 42.76 °N, 72.81 °W | Updated 4 minutes ago

Snow
Snow
29.5 °F
Feels Like 18 °F
N
15.9
Wind Variable Wind from South
Gusts 15.9 mph

Today
High -- | Low -- °F
--% Chance of Precip.
Yesterday
High -- | Low -- °F
Precip. -- in
6:37 AM 7:15 PM
Waxing Gibbous, 80% visible
Pressure 29.75 in
Visibility 2.0 miles
Clouds Few 2400 ft
Scattered Clouds 3200 ft
Overcast 3900 ft
Windchill 18 °F
Dew Point 24 °F
Humidity 79%
Rainfall 0.00 in
Snow Depth Not available.
UV 1 out of 12
Pollen 3.50 out of 12
Air Quality Not available.
Flu Activity Not available.
SPECI KAQW 301401Z AUTO 25007KT 2SM -SN FEW024 SCT032 OVC039 02/M03 A2975 RMK AO2 P0000 T00171028

More Conditions Fewer Conditions

Pressure 29.75 in
Visibility 2.0 miles
Clouds Few 2400 ft
Scattered Clouds 3200 ft
Overcast 3900 ft
Windchill 18 °F
Dew Point 24 °F
Humidity 79%
Rainfall 0.00 in
Snow Depth Not available.
UV 1 out of 12
Pollen 3.50 out of 12
Air Quality Not available.
Flu Activity Not available.
SPECI KAQW 301401Z AUTO 25007KT 2SM -SN FEW024 SCT032 OVC039 02/M03 A2975 RMK AO2 P0000 T00171028

More Conditions Fewer Conditions

10-Day Weather Forecast

Almanac

Astronomy

Mar. 30, 2015 Rise Set
Actual Time
Civil Twilight
Nautical Twilight
Astronomical Twilight
Moon
Length of Visible Light
Length of Day
Tomorrow will be .
, % of the Moon is Illuminated

Today's Extremes

State Highs State Lows

Community

WunderPhotos

Upload Photos

1,809,502 photos uploaded!

WunderBlogs® & News

Nearby

Air Quality

  Air Quality AQ Index Pollutant
Not available.

Snow Depth

Station Depth Elevation

Earthquake Activity

City Distance Mag. Time & Date
Minimum magnitude displayed is 2.5.

Coastal Water Temperatures

Place Temperature

Stations

Nearby Weather Stations

Station Location Temp. Windchill Dew Point Humidity Wind Precip. Elev Updated Type